Flight Track Log - Related Links

Times and Time Zones

All times are in EDT time to prevent confusion due to time zone crossing. See the N408FP flight status page for this flight to view local times or setup timezone preferences in your user account.

Time Position Orientation Groundspeed Altitude Reporting Facility
EDT Latitude Longitude Course Direction KTS MPH feet Rate Location/Type
Fri 05:57:00 PM 26.3277 -81.7833 North  Level FlightAware Approximate
Fri 05:58:00 PM 26.3575 -81.7833 360° North  Level FlightAware Approximate
Fri 05:59:00 PM 26.3871 -81.7856 354° North  Level FlightAware Approximate
Fri 06:00:00 PM 26.4167 -81.7890 354° North  Level FlightAware Approximate
Fri 06:01:00 PM 26.4463 -81.7923 354° North  Level FlightAware Approximate
Fri 06:02:00 PM 26.4760 -81.7957 354° North  Level FlightAware Approximate
Fri 06:03:00 PM 26.5056 -81.7990 354° North  Level FlightAware Approximate
Fri 06:04:00 PM 26.5352 -81.8024 354° North  Level FlightAware Approximate
Fri 06:05:00 PM 26.5648 -81.8057 354° North  Level FlightAware Approximate
Fri 06:06:00 PM 26.5944 -81.8091 354° North  Level FlightAware Approximate
Fri 06:07:00 PM 26.6240 -81.8124 354° North  Level FlightAware Approximate
Fri 06:08:00 PM 26.6536 -81.8158 354° North  Level FlightAware Approximate
Fri 06:09:00 PM 26.6832 -81.8192 354° North  Level FlightAware Approximate
Fri 06:10:00 PM 26.7128 -81.8225 354° North  Level FlightAware Approximate
Fri 06:11:00 PM 26.7424 -81.8259 354° North  Level FlightAware Approximate
Fri 06:12:00 PM 26.7720 -81.8293 354° North  Level FlightAware Approximate
Fri 06:12:33 PM 26.7017 -82.0044 354° North 129 148 5,900  Level Miami Center
Fri 06:13:00 PM 26.8016 -81.8326 354° North  Level FlightAware Approximate
Fri 06:13:33 PM 26.7369 -82.0106 351° North 129 148 6,000  Level Miami Center
Fri 06:14:00 PM 26.8312 -81.8360 354° North  Level FlightAware Approximate
Fri 06:14:33 PM 26.7681 -82.0142 354° North 129 148 6,000  Level Miami Center
Fri 06:15:00 PM 26.8608 -81.8394 354° North  Level FlightAware Approximate
Fri 06:15:33 PM 26.8033 -82.0206 351° North 124 143 6,000  Level Miami Center
Fri 06:16:00 PM 26.8904 -81.8427 354° North  Level FlightAware Approximate
Fri 06:16:33 PM 26.8367 -82.0242 354° North 129 148 6,000  Level Miami Center
Fri 06:17:33 PM 26.8781 -82.0331 349° North 134 154 6,000  Level Miami Center
Fri 06:18:45 PM 26.9156 -82.0394 351° North 134 154 6,000  Level Miami Center
Fri 06:19:45 PM 26.9611 -82.0461 353° North 129 148 6,000  Level Miami Center
Fri 06:20:45 PM 26.9944 -82.0522 351° North 129 148 6,000  Level Miami Center
Fri 06:21:45 PM 27.0275 -82.0561 354° North 140 161 6,000 -50 Level Miami Center
Fri 06:22:45 PM 27.0631 -82.0553 North 140 161 5,900  Descending Miami Center
Fri 06:23:45 PM 27.0986 -82.0544 North 134 154 6,000 50 Climbing Miami Center
Fri 06:24:45 PM 27.1342 -82.0514 North 134 154 6,000 -50 Level Miami Center
Fri 06:25:45 PM 27.1697 -82.0531 358° North 129 148 5,900 -50 Descending Miami Center
Fri 06:26:45 PM 27.2053 -82.0500 North 123 142 5,900  Level Miami Center
Fri 06:27:45 PM 27.2386 -82.0469 North 123 142 5,900  Level Miami Center
Fri 06:28:45 PM 27.2742 -82.0461 North 123 142 5,900  Level Miami Center
Fri 06:29:45 PM 27.3097 -82.0478 358° North 123 142 5,900  Level Miami Center
Fri 06:30:45 PM 27.3453 -82.0447 North 123 142 5,900  Level Miami Center
Fri 06:31:45 PM 27.3808 -82.0417 North 123 142 5,900  Level Miami Center
Fri 06:32:45 PM 27.4164 -82.0408 North 123 142 5,900 50 Level Miami Center
Fri 06:33:45 PM 27.4519 -82.0378 North 123 142 6,000 50 Climbing Miami Center
Fri 06:34:45 PM 27.4894 -82.0372 North 123 142 6,000  Level Miami Center
Fri 06:35:45 PM 27.5250 -82.0364 North 123 142 6,000  Level Miami Center
Fri 06:36:45 PM 27.5628 -82.0311 North 123 142 6,000  Level Miami Center
Fri 06:37:45 PM 27.5983 -82.0281 North 123 142 6,000  Level Miami Center
Fri 06:38:45 PM 27.6339 -82.0272 North 123 142 6,000  Level Miami Center
Fri 06:39:45 PM 27.6653 -82.0264 North 123 142 6,000  Level Miami Center
Fri 06:40:45 PM 27.6986 -82.0278 358° North 123 142 6,000 -50 Level Miami Center
Fri 06:41:45 PM 27.7406 -82.0228 North 123 142 5,900  Descending Miami Center
Fri 06:42:45 PM 27.7739 -82.0219 North 123 142 6,000  Climbing Miami Center
Fri 06:43:45 PM 27.8133 -82.0236 358° North 123 142 5,900 -50 Descending Miami Center
Fri 06:44:45 PM 27.8489 -82.0206 North 123 142 5,900 44 Level Miami Center
Fri 06:46:02 PM 27.9000 -82.0167 North 130 150 6,000 46 Climbing Tampa TRACON
Fri 06:46:56 PM 27.9333 -82.0167 360° North 130 150 6,000  Level Tampa TRACON
Fri 06:47:56 PM 27.9667 -82.0167 360° North 134 154 6,000  Level Tampa TRACON
Fri 06:48:56 PM 28.0000 -82.0167 360° North 134 154 6,000  Level Tampa TRACON
Fri 06:49:56 PM 28.0333 -82.0167 360° North 136 157 6,000  Level Tampa TRACON
Fri 06:50:56 PM 28.0833 -82.0333 344° North 130 150 6,000  Level Tampa TRACON
Fri 06:51:56 PM 28.1167 -82.0333 360° North 134 154 6,000  Level Tampa TRACON
Fri 06:52:56 PM 28.1500 -82.0500 336° Northwest 137 158 6,000  Level Tampa TRACON
Fri 06:54:02 PM 28.2000 -82.0500 360° North 132 152 6,000  Level Tampa TRACON
Fri 06:54:56 PM 28.2167 -82.0500 360° North 129 148 6,000  Level Tampa TRACON
Fri 06:56:08 PM 28.2667 -82.0667 344° North 136 157 6,000  Level Tampa TRACON
Fri 06:57:08 PM 28.3000 -82.0667 360° North 134 154 6,000  Level Tampa TRACON
Fri 06:58:08 PM 28.3333 -82.0833 336° Northwest 132 152 6,000  Level Tampa TRACON
Fri 06:59:14 PM 28.3833 -82.0833 360° North 131 151 6,000  Level Tampa TRACON
Fri 07:00:08 PM 28.4167 -82.0833 360° North 133 153 6,000  Level Tampa TRACON
Fri 07:01:08 PM 28.4500 -82.1000 336° Northwest 136 157 6,000  Level Tampa TRACON
Fri 07:02:14 PM 28.4833 -82.1000 360° North 136 157 6,000 -48 Level Tampa TRACON
Fri 07:03:13 PM 28.5272 -82.1106 348° North 135 155 5,900 -50 Descending Jacksonville Center
Fri 07:04:13 PM 28.5628 -82.1197 347° North 133 153 5,900 43 Level Jacksonville Center
Fri 07:05:33 PM 28.6108 -82.1264 353° North 134 154 6,000 43 Climbing Jacksonville Center
Fri 07:06:34 PM 28.6486 -82.1331 351° North 133 153 6,000  Level Jacksonville Center
Fri 07:07:17 PM 28.6778 -82.1400 348° North 136 157 6,000  Level Jacksonville Center
Fri 07:08:17 PM 28.7153 -82.1444 354° North 136 157 6,000  Level Jacksonville Center
Fri 07:09:37 PM 28.7656 -82.1561 349° North 135 155 6,000 -43 Level Jacksonville Center
Fri 07:10:38 PM 28.8031 -82.1628 351° North 137 158 5,900 -58 Descending Jacksonville Center
Fri 07:11:21 PM 28.8281 -82.1650 356° North 136 157 5,900 55 Level Jacksonville Center
Fri 07:12:28 PM 28.8700 -82.1719 352° North 137 158 6,000  Climbing Jacksonville Center
Fri 07:13:29 PM 28.9097 -82.1833 346° North 135 155 5,900 -49 Descending Jacksonville Center
Fri 07:14:30 PM 28.9453 -82.2022 335° Northwest 133 153 5,900 98 Level Jacksonville Center
Fri 07:15:31 PM 28.9831 -82.2136 345° North 130 150 6,100 49 Climbing Jacksonville Center
Fri 07:16:32 PM 29.0142 -82.2253 342° North 134 154 6,000 -49 Descending Jacksonville Center
Fri 07:17:33 PM 29.0539 -82.2394 343° North 134 154 6,000  Level Jacksonville Center
Fri 07:18:52 PM 29.1000 -82.2558 343° North 132 152 6,000  Level Jacksonville Center
Fri 07:19:35 PM 29.1250 -82.2675 338° Northwest 134 154 6,000  Level Jacksonville Center
Fri 07:20:48 PM 29.1669 -82.2839 341° North 135 155 6,000 -45 Level Jacksonville Center
Fri 07:21:49 PM 29.2047 -82.2956 345° North 132 152 5,900  Descending Jacksonville Center
Fri 07:22:38 PM 29.2317 -82.3072 339° North 131 151 6,000  Climbing Jacksonville Center
Fri 07:23:57 PM 29.2778 -82.3236 343° North 132 152 5,900 -49 Descending Jacksonville Center
Fri 07:24:40 PM 29.2986 -82.3306 344° North 129 148 5,900 52 Level Jacksonville Center
Fri 07:25:53 PM 29.3406 -82.3494 339° North 124 143 6,000 -141 Climbing Jacksonville Center
Fri 07:26:48 PM 29.3739 -82.3611 343° North 135 155 5,600 -655 Descending Jacksonville Center
Fri 07:27:43 PM 29.4075 -82.3753 340° North 138 159 4,800 -885 Descending Jacksonville Center
Fri 07:28:50 PM 29.4450 -82.3869 345° North 135 155 3,800 -885 Descending Jacksonville Center
Fri 07:29:45 PM 29.4806 -82.4011 341° North 135 155 3,000 -466 Descending Jacksonville Center
Fri 07:30:46 PM 29.5119 -82.4128 342° North 114 131 2,900  Descending Jacksonville Center
Fri 07:31:41 PM 29.5369 -82.4247 337° Northwest 108 124 3,000 -259 Climbing Jacksonville Center
Fri 07:32:42 PM 29.5683 -82.4436 332° Northwest 129 148 2,400 -422 Descending Jacksonville Center
Fri 07:33:49 PM 29.6039 -82.4578 341° North 123 142 2,100 -328 Descending Jacksonville Center
Fri 07:34:50 PM 29.6206 -82.4267 58° Northeast 118 136 1,700 -197 Descending Jacksonville Center
Fri 07:35:51 PM 29.6350 -82.3931 64° Northeast 115 132 1,700  Level Jacksonville Center
Fri 07:36:58 PM 29.6494 -82.3619 62° Northeast 92 106 1,700 -328 Level Jacksonville Center
Fri 07:37:59 PM 29.6619 -82.3356 61° Northeast 94 108 1,000 -443 Descending Jacksonville Center
Fri 07:39:00 PM 29.6764 -82.3092 58° Northeast 89 102 800 -197 Descending Jacksonville Center
Fri 07:40:00 PM 29.6824 -82.2722 79° East  Level FlightAware Approximate
Fri 07:47:00 PM 29.6833 -82.2667 60° Northeast  Level FlightAware Approximate
Fri 07:48:00 PM 29.6901 -82.2718 60° Northeast  Level Estimated

Login

Don't have an account? Register now (free) for customized features, flight alerts, and more!